createdAt,value
2024-02-10T00:01:29.758Z,98441.31
2024-02-10T00:03:58.166Z,98458.25
2024-02-10T00:06:25.325Z,98456.50
2024-02-10T00:08:52.296Z,98449.88
2024-02-10T00:11:19.312Z,98444.25
2024-02-10T00:13:46.300Z,98456.72
2024-02-10T00:16:13.480Z,98455.13
2024-02-10T00:18:42.450Z,98457.84
2024-02-10T00:21:09.526Z,98458.97
2024-02-10T00:23:36.517Z,98458.00
2024-02-10T00:26:05.674Z,98462.34
2024-02-10T00:28:36.615Z,98455.66
2024-02-10T00:31:06.686Z,98452.66
2024-02-10T00:33:35.436Z,98446.47
2024-02-10T00:36:02.581Z,98439.84
2024-02-10T00:38:29.341Z,98452.41
2024-02-10T00:41:05.927Z,98443.75
2024-02-10T00:43:33.142Z,98442.41
2024-02-10T00:46:00.549Z,98449.69
2024-02-10T00:48:27.649Z,98449.13
2024-02-10T00:50:57.897Z,98445.63
2024-02-10T00:53:24.843Z,98446.16
2024-02-10T00:55:51.800Z,98434.81
2024-02-10T00:58:18.811Z,98434.16
2024-02-10T01:00:46.637Z,98422.75
2024-02-10T01:03:14.441Z,98413.19
2024-02-10T01:05:41.477Z,98415.53
2024-02-10T01:08:09.417Z,98414.88
2024-02-10T01:10:36.723Z,98411.75
2024-02-10T01:13:04.679Z,98413.53
2024-02-10T01:15:34.068Z,98422.91
2024-02-10T01:18:05.423Z,98427.22
2024-02-10T01:20:32.512Z,98424.63
2024-02-10T01:23:01.104Z,98427.81
2024-02-10T01:25:31.994Z,98423.97
2024-02-10T01:27:59.830Z,98426.22
2024-02-10T01:30:27.980Z,98413.63
2024-02-10T01:32:59.718Z,98417.44
2024-02-10T01:35:27.079Z,98420.78
2024-02-10T01:37:54.270Z,98417.78
2024-02-10T01:40:24.162Z,98417.28
2024-02-10T01:42:51.205Z,98416.69
2024-02-10T01:45:19.573Z,98415.03
2024-02-10T01:47:47.715Z,98412.88
2024-02-10T01:50:15.138Z,98424.91
2024-02-10T01:52:46.149Z,98422.66
2024-02-10T01:55:13.539Z,98419.25
2024-02-10T01:57:40.933Z,98424.22
2024-02-10T02:00:15.619Z,98415.25
2024-02-10T02:02:42.685Z,98406.34
2024-02-10T02:05:09.731Z,98416.19
2024-02-10T02:07:37.300Z,98403.06
2024-02-10T02:10:04.994Z,98404.97
2024-02-10T02:12:32.988Z,98411.59
2024-02-10T02:15:00.594Z,98403.66
2024-02-10T02:17:27.804Z,98402.00
2024-02-10T02:19:54.754Z,98408.75
2024-02-10T02:22:21.876Z,98407.59
2024-02-10T02:24:49.196Z,98410.03
2024-02-10T02:27:16.769Z,98412.69
2024-02-10T02:29:43.879Z,98413.72
2024-02-10T02:32:12.243Z,98415.59
2024-02-10T02:34:39.761Z,98416.19
2024-02-10T02:37:08.615Z,98423.53
2024-02-10T02:39:37.690Z,98409.97
2024-02-10T02:42:09.208Z,98408.84
2024-02-10T02:44:36.024Z,98408.94
2024-02-10T02:47:06.742Z,98415.16
2024-02-10T02:49:34.964Z,98410.88
2024-02-10T02:52:02.368Z,98413.53
2024-02-10T02:54:32.807Z,98415.06
2024-02-10T02:57:01.734Z,98425.97
2024-02-10T02:59:29.233Z,98428.88
2024-02-10T03:01:56.621Z,98425.41
2024-02-10T03:04:24.539Z,98419.00
2024-02-10T03:06:52.272Z,98420.44
2024-02-10T03:09:19.750Z,98431.00
2024-02-10T03:11:46.822Z,98431.72
2024-02-10T03:14:13.565Z,98430.28
2024-02-10T03:16:41.241Z,98429.38
2024-02-10T03:19:08.826Z,98422.50
2024-02-10T03:21:37.261Z,98417.28
2024-02-10T03:24:05.333Z,98410.13
2024-02-10T03:26:33.661Z,98407.94
2024-02-10T03:29:05.134Z,98409.75
2024-02-10T03:31:32.786Z,98424.03
2024-02-10T03:34:00.025Z,98424.22
2024-02-10T03:36:27.209Z,98415.19
2024-02-10T03:38:56.186Z,98426.72
2024-02-10T03:41:24.527Z,98429.53
2024-02-10T03:43:51.525Z,98420.22
2024-02-10T03:46:23.195Z,98416.88
2024-02-10T03:48:53.939Z,98421.69
2024-02-10T03:51:21.000Z,98417.56
2024-02-10T03:53:47.924Z,98417.91
2024-02-10T03:56:14.828Z,98419.28
2024-02-10T03:58:44.995Z,98420.94
2024-02-10T04:01:16.578Z,98417.41
2024-02-10T04:03:48.844Z,98426.97
2024-02-10T04:06:17.337Z,98425.09
2024-02-10T04:08:48.402Z,98425.72
2024-02-10T04:11:18.355Z,98421.50
2024-02-10T04:13:46.851Z,98410.75
2024-02-10T04:16:15.406Z,98418.56
2024-02-10T04:18:43.227Z,98411.38
2024-02-10T04:21:11.092Z,98417.41
2024-02-10T04:23:41.322Z,98419.09
2024-02-10T04:26:09.220Z,98427.13
2024-02-10T04:28:36.744Z,98427.63
2024-02-10T04:31:04.780Z,98412.28
2024-02-10T04:33:32.207Z,98420.44
2024-02-10T04:36:00.584Z,98420.34
2024-02-10T04:38:27.543Z,98426.81
2024-02-10T04:40:54.606Z,98417.53
2024-02-10T04:43:24.375Z,98420.03
2024-02-10T04:45:51.405Z,98415.88
2024-02-10T04:48:21.798Z,98416.56
2024-02-10T04:50:49.132Z,98413.00
2024-02-10T04:53:17.026Z,98426.72
2024-02-10T04:55:44.662Z,98428.28
2024-02-10T04:58:14.492Z,98434.94
2024-02-10T05:00:42.430Z,98433.06
2024-02-10T05:03:09.762Z,98441.50
2024-02-10T05:05:37.025Z,98428.53
2024-02-10T05:08:04.550Z,98427.84
2024-02-10T05:10:31.682Z,98431.38
2024-02-10T05:12:59.089Z,98435.72
2024-02-10T05:15:28.557Z,98421.75
2024-02-10T05:17:56.091Z,98422.69
2024-02-10T05:20:24.870Z,98434.09
2024-02-10T05:22:54.503Z,98434.09
2024-02-10T05:25:22.867Z,98436.22
2024-02-10T05:27:50.714Z,98432.44
2024-02-10T05:30:22.005Z,98438.41
2024-02-10T05:32:51.547Z,98440.88
2024-02-10T05:35:20.137Z,98434.97
2024-02-10T05:37:55.323Z,98433.41
2024-02-10T05:40:23.596Z,98441.56
2024-02-10T05:42:51.485Z,98442.56
2024-02-10T05:45:19.764Z,98447.06
2024-02-10T05:47:53.196Z,98457.78
2024-02-10T05:50:23.982Z,98461.25
2024-02-10T05:52:53.199Z,98460.72
2024-02-10T05:55:27.503Z,98465.47
2024-02-10T05:58:08.501Z,98466.69
2024-02-10T06:00:39.778Z,98472.34
2024-02-10T06:03:07.045Z,98471.56
2024-02-10T06:05:34.222Z,98465.13
2024-02-10T06:08:02.570Z,98462.72
2024-02-10T06:10:29.680Z,98466.00
2024-02-10T06:12:56.619Z,98461.56
2024-02-10T06:15:25.448Z,98465.13
2024-02-10T06:17:57.222Z,98462.72
2024-02-10T06:20:25.139Z,98467.00
2024-02-10T06:22:56.069Z,98462.22
2024-02-10T06:25:26.760Z,98471.56
2024-02-10T06:28:00.773Z,98459.50
2024-02-10T06:30:32.106Z,98476.16
2024-02-10T06:33:00.237Z,98470.75
2024-02-10T06:35:28.605Z,98474.16
2024-02-10T06:37:56.568Z,98473.66
2024-02-10T06:40:24.827Z,98469.28
2024-02-10T06:42:54.051Z,98464.84
2024-02-10T06:45:26.321Z,98468.09
2024-02-10T06:47:54.096Z,98465.31
2024-02-10T06:50:26.236Z,98463.41
2024-02-10T06:52:54.969Z,98465.97
2024-02-10T06:55:25.407Z,98473.66
2024-02-10T06:57:54.427Z,98481.63
2024-02-10T07:00:21.584Z,98473.59
2024-02-10T07:02:48.690Z,98476.34
2024-02-10T07:05:18.166Z,98473.44
2024-02-10T07:07:50.264Z,98478.69
2024-02-10T07:10:21.997Z,98477.34
2024-02-10T07:12:59.609Z,98480.69
2024-02-10T07:15:31.639Z,98479.63
2024-02-10T07:17:59.500Z,98484.53
2024-02-10T07:20:27.206Z,98481.56
2024-02-10T07:22:57.835Z,98496.16
2024-02-10T07:25:31.476Z,98489.88
2024-02-10T07:28:05.492Z,98494.38
2024-02-10T07:30:34.401Z,98498.22
2024-02-10T07:33:11.166Z,98496.00
2024-02-10T07:35:45.063Z,98494.34
2024-02-10T07:38:12.466Z,98498.03
2024-02-10T07:40:40.073Z,98496.22
2024-02-10T07:43:15.026Z,98501.13
2024-02-10T07:45:42.181Z,98503.66
2024-02-10T07:48:09.443Z,98498.34
2024-02-10T07:50:39.857Z,98498.13
2024-02-10T07:53:07.410Z,98498.75
2024-02-10T07:55:37.198Z,98499.91
2024-02-10T07:58:08.482Z,98503.31
2024-02-10T08:00:35.466Z,98503.09
2024-02-10T08:03:05.230Z,98488.38
2024-02-10T08:05:32.201Z,98499.50
2024-02-10T08:08:01.609Z,98499.16
2024-02-10T08:10:28.816Z,98496.28
2024-02-10T08:12:55.912Z,98489.78
2024-02-10T08:15:24.342Z,98495.69
2024-02-10T08:17:51.425Z,98501.31
2024-02-10T08:20:21.177Z,98497.44
2024-02-10T08:22:49.885Z,98502.19
2024-02-10T08:25:19.913Z,98510.31
2024-02-10T08:27:47.013Z,98508.50
2024-02-10T08:30:18.088Z,98508.31
2024-02-10T08:32:45.070Z,98510.22
2024-02-10T08:35:13.749Z,98508.03
2024-02-10T08:37:41.309Z,98514.78
2024-02-10T08:40:11.074Z,98512.03
2024-02-10T08:42:38.792Z,98519.19
2024-02-10T08:45:12.851Z,98519.03
2024-02-10T08:47:39.760Z,98512.22
2024-02-10T08:50:07.819Z,98498.53
2024-02-10T08:52:34.783Z,98503.53
2024-02-10T08:55:08.296Z,98494.72
2024-02-10T08:57:37.598Z,98494.47
2024-02-10T09:00:12.188Z,98496.78
2024-02-10T09:02:39.135Z,98496.94
2024-02-10T09:05:08.771Z,98492.50
2024-02-10T09:07:35.746Z,98493.44
2024-02-10T09:10:02.606Z,98484.28
2024-02-10T09:12:31.394Z,98488.75
2024-02-10T09:14:58.322Z,98501.97
2024-02-10T09:17:25.332Z,98492.22
2024-02-10T09:19:52.815Z,98493.28
2024-02-10T09:22:19.897Z,98489.78
2024-02-10T09:24:46.847Z,98498.69
2024-02-10T09:27:13.798Z,98495.00
2024-02-10T09:29:40.553Z,98490.44
2024-02-10T09:32:08.077Z,98498.91
2024-02-10T09:34:35.538Z,98501.25
2024-02-10T09:37:02.542Z,98500.91
2024-02-10T09:39:29.543Z,98498.97
2024-02-10T09:42:05.302Z,98493.78
2024-02-10T09:44:34.499Z,98487.59
2024-02-10T09:47:03.483Z,98494.78
2024-02-10T09:49:31.547Z,98499.34
2024-02-10T09:52:00.364Z,98499.44
2024-02-10T09:54:27.863Z,98488.91
2024-02-10T09:56:58.367Z,98494.56
2024-02-10T09:59:26.442Z,98497.91
2024-02-10T10:01:55.821Z,98485.53
2024-02-10T10:04:23.267Z,98487.09
2024-02-10T10:06:50.904Z,98484.28
2024-02-10T10:09:22.651Z,98489.53
2024-02-10T10:11:51.423Z,98489.66
2024-02-10T10:14:19.567Z,98488.59
2024-02-10T10:17:00.036Z,98480.78
2024-02-10T10:19:28.793Z,98484.19
2024-02-10T10:21:57.887Z,98473.16
2024-02-10T10:24:29.365Z,98479.47
2024-02-10T10:26:58.016Z,98480.50
2024-02-10T10:29:25.081Z,98472.88
2024-02-10T10:31:55.069Z,98478.28
2024-02-10T10:34:24.788Z,98468.44
2024-02-10T10:36:54.623Z,98464.84
2024-02-10T10:39:23.727Z,98460.38
2024-02-10T10:41:53.331Z,98465.81
2024-02-10T10:44:22.347Z,98466.69
2024-02-10T10:46:50.232Z,98458.06
2024-02-10T10:49:17.649Z,98455.91
2024-02-10T10:52:03.219Z,98452.13
2024-02-10T10:54:35.014Z,98455.84
2024-02-10T10:57:07.071Z,98452.81
2024-02-10T10:59:37.116Z,98448.25
2024-02-10T11:02:16.323Z,98454.03
2024-02-10T11:04:47.757Z,98449.28
2024-02-10T11:07:17.586Z,98453.50
2024-02-10T11:09:53.218Z,98455.78
2024-02-10T11:12:20.387Z,98452.31
2024-02-10T11:14:54.789Z,98455.50
2024-02-10T11:17:22.264Z,98458.88
2024-02-10T11:20:02.808Z,98456.59
2024-02-10T11:22:43.912Z,98462.81
2024-02-10T11:25:17.839Z,98466.22
2024-02-10T11:27:48.529Z,98468.34
2024-02-10T11:30:15.828Z,98468.34
2024-02-10T11:32:49.384Z,98473.91
2024-02-10T11:35:16.908Z,98472.22
2024-02-10T11:37:44.254Z,98473.53
2024-02-10T11:40:17.124Z,98481.78
2024-02-10T11:42:44.818Z,98480.34
2024-02-10T11:45:12.254Z,98474.91
2024-02-10T11:47:39.681Z,98480.56
2024-02-10T11:50:08.167Z,98477.09
2024-02-10T11:52:37.743Z,98476.53
2024-02-10T11:55:05.671Z,98472.63
2024-02-10T11:57:32.761Z,98473.22
2024-02-10T11:59:59.769Z,98467.28
2024-02-10T12:02:27.891Z,98464.28
2024-02-10T12:04:55.199Z,98465.91
2024-02-10T12:07:22.474Z,98462.75
2024-02-10T12:09:49.373Z,98467.94
2024-02-10T12:12:17.221Z,98463.16
2024-02-10T12:14:44.329Z,98464.94
2024-02-10T12:17:11.400Z,98475.88
2024-02-10T12:19:40.925Z,98465.78
2024-02-10T12:22:12.460Z,98472.31
2024-02-10T12:24:44.938Z,98472.59
2024-02-10T12:27:12.878Z,98481.22
2024-02-10T12:29:40.180Z,98473.19
2024-02-10T12:32:09.958Z,98471.69
2024-02-10T12:34:37.008Z,98468.09
2024-02-10T12:37:04.520Z,98469.72
2024-02-10T12:39:31.495Z,98473.09
2024-02-10T12:42:00.791Z,98467.63
2024-02-10T12:44:28.175Z,98469.09
2024-02-10T12:46:55.290Z,98463.16
2024-02-10T12:49:23.123Z,98456.19
2024-02-10T12:51:50.375Z,98465.19
2024-02-10T12:54:17.462Z,98458.50
2024-02-10T12:56:44.449Z,98453.91
2024-02-10T12:59:12.182Z,98464.06
2024-02-10T13:01:39.577Z,98457.25
2024-02-10T13:04:06.694Z,98456.13
2024-02-10T13:06:33.734Z,98455.34
2024-02-10T13:09:00.872Z,98459.94
2024-02-10T13:11:27.956Z,98461.38
2024-02-10T13:13:56.582Z,98465.91
2024-02-10T13:16:23.947Z,98469.56
2024-02-10T13:18:52.264Z,98470.97
2024-02-10T13:21:21.144Z,98465.53
2024-02-10T13:23:48.481Z,98464.78
2024-02-10T13:26:15.865Z,98464.38
2024-02-10T13:28:47.071Z,98472.00
2024-02-10T13:31:14.216Z,98469.44
2024-02-10T13:33:42.460Z,98471.81
2024-02-10T13:36:17.200Z,98464.59
2024-02-10T13:39:03.448Z,98466.47
2024-02-10T13:41:48.768Z,98469.97
2024-02-10T13:44:34.319Z,98463.41
2024-02-10T13:47:19.870Z,98469.91
2024-02-10T13:50:05.145Z,98454.97
2024-02-10T13:52:50.626Z,98452.09
2024-02-10T13:55:36.318Z,98453.00
2024-02-10T13:58:13.036Z,98453.00
2024-02-10T14:00:45.812Z,98453.84
2024-02-10T14:03:15.120Z,98449.91
2024-02-10T14:05:49.929Z,98447.81
2024-02-10T14:08:37.120Z,98457.66
2024-02-10T14:11:24.901Z,98445.91
2024-02-10T14:13:53.268Z,98444.88
2024-02-10T14:16:29.264Z,98444.41
2024-02-10T14:19:07.353Z,98444.28
2024-02-10T14:21:37.643Z,98446.56
2024-02-10T14:24:06.481Z,98459.88
2024-02-10T14:26:41.967Z,98451.88
2024-02-10T14:29:21.148Z,98442.28
2024-02-10T14:31:49.581Z,98448.91
2024-02-10T14:34:27.621Z,98451.94
2024-02-10T14:37:06.941Z,98455.13
2024-02-10T14:39:35.050Z,98465.00
2024-02-10T14:42:02.010Z,98469.16
2024-02-10T14:44:30.872Z,98473.47
2024-02-10T14:47:00.426Z,98470.75
2024-02-10T14:49:27.607Z,98473.13
2024-02-10T14:51:54.547Z,98471.91
2024-02-10T14:54:22.669Z,98483.44
2024-02-10T14:56:49.646Z,98479.16
2024-02-10T14:59:17.075Z,98482.03
2024-02-10T15:01:44.252Z,98486.72
2024-02-10T15:04:12.381Z,98490.97
2024-02-10T15:06:42.198Z,98488.41
2024-02-10T15:09:09.784Z,98486.78
2024-02-10T15:11:41.153Z,98489.66
2024-02-10T15:14:10.450Z,98496.41
2024-02-10T15:16:38.544Z,98495.38
2024-02-10T15:19:05.572Z,98506.03
2024-02-10T15:21:34.193Z,98507.44
2024-02-10T15:24:08.223Z,98507.97
2024-02-10T15:26:35.265Z,98502.91
2024-02-10T15:29:03.478Z,98503.94
2024-02-10T15:31:35.727Z,98515.50
2024-02-10T15:34:05.209Z,98520.63
2024-02-10T15:36:37.313Z,98523.34
2024-02-10T15:39:06.786Z,98522.63
2024-02-10T15:41:35.357Z,98527.00
2024-02-10T15:44:08.047Z,98527.69
2024-02-10T15:46:36.707Z,98516.69
2024-02-10T15:49:04.386Z,98513.38
2024-02-10T15:51:34.559Z,98527.38
2024-02-10T15:54:02.072Z,98520.63
2024-02-10T15:56:29.380Z,98520.47
2024-02-10T15:58:56.506Z,98517.78
2024-02-10T16:01:23.978Z,98532.69
2024-02-10T16:03:52.350Z,98537.88
2024-02-10T16:06:19.641Z,98548.66
2024-02-10T16:08:49.096Z,98532.72
2024-02-10T16:11:16.985Z,98544.56
2024-02-10T16:13:46.074Z,98550.28
2024-02-10T16:16:18.021Z,98550.22
2024-02-10T16:18:48.363Z,98552.88
2024-02-10T16:21:27.932Z,98541.69
2024-02-10T16:23:56.466Z,98549.47
2024-02-10T16:26:23.677Z,98541.63
2024-02-10T16:28:52.569Z,98544.50
2024-02-10T16:31:21.973Z,98550.50
2024-02-10T16:33:50.751Z,98548.66
2024-02-10T16:36:17.861Z,98552.34
2024-02-10T16:38:44.863Z,98558.59
2024-02-10T16:41:19.496Z,98561.50
2024-02-10T16:43:46.556Z,98567.59
2024-02-10T16:46:17.394Z,98570.63
2024-02-10T16:48:50.738Z,98571.16
2024-02-10T16:51:34.421Z,98570.00
2024-02-10T16:54:06.055Z,98571.16
2024-02-10T16:56:36.821Z,98575.34
2024-02-10T16:59:08.701Z,98560.53
2024-02-10T17:01:36.033Z,98564.88
2024-02-10T17:04:09.252Z,98567.88
2024-02-10T17:06:37.616Z,98563.72
2024-02-10T17:09:06.192Z,98565.56
2024-02-10T17:11:34.742Z,98569.78
2024-02-10T17:14:02.171Z,98572.72
2024-02-10T17:16:30.309Z,98575.84
2024-02-10T17:19:00.536Z,98567.94
2024-02-10T17:21:27.869Z,98571.16
2024-02-10T17:23:54.802Z,98579.47
2024-02-10T17:26:21.898Z,98575.84
2024-02-10T17:28:49.052Z,98568.91
2024-02-10T17:31:16.455Z,98563.91
2024-02-10T17:33:43.702Z,98562.88
2024-02-10T17:36:10.998Z,98559.25
2024-02-10T17:38:39.211Z,98553.59
2024-02-10T17:41:12.143Z,98560.88
2024-02-10T17:43:39.633Z,98555.81
2024-02-10T17:46:06.725Z,98562.16
2024-02-10T17:48:35.169Z,98565.22
2024-02-10T17:51:02.373Z,98556.03
2024-02-10T17:53:30.887Z,98563.00
2024-02-10T17:56:03.192Z,98569.13
2024-02-10T17:58:32.917Z,98571.47
2024-02-10T18:01:00.918Z,98574.09
2024-02-10T18:03:31.230Z,98575.25
2024-02-10T18:06:00.977Z,98571.97
2024-02-10T18:08:30.833Z,98571.53
2024-02-10T18:10:58.033Z,98570.84
2024-02-10T18:13:25.599Z,98570.56
2024-02-10T18:15:52.754Z,98571.03
2024-02-10T18:18:20.353Z,98570.63
2024-02-10T18:20:48.003Z,98566.69
2024-02-10T18:23:15.141Z,98573.13
2024-02-10T18:25:43.596Z,98579.84
2024-02-10T18:28:14.030Z,98579.66
2024-02-10T18:30:41.603Z,98571.81
2024-02-10T18:33:08.809Z,98570.81
2024-02-10T18:35:35.732Z,98566.69
2024-02-10T18:38:03.094Z,98568.25
2024-02-10T18:40:31.209Z,98549.91
2024-02-10T18:42:59.897Z,98550.56
2024-02-10T18:45:34.151Z,98541.59
2024-02-10T18:48:02.341Z,98548.41
2024-02-10T18:50:29.412Z,98554.84
2024-02-10T18:52:58.165Z,98546.00
2024-02-10T18:55:25.693Z,98545.44
2024-02-10T18:57:52.708Z,98551.19
2024-02-10T19:00:22.734Z,98555.53
2024-02-10T19:02:50.047Z,98561.78
2024-02-10T19:05:17.863Z,98560.78
2024-02-10T19:07:45.703Z,98564.44
2024-02-10T19:10:13.034Z,98549.88
2024-02-10T19:12:40.618Z,98542.53
2024-02-10T19:15:11.574Z,98554.16
2024-02-10T19:17:39.144Z,98550.09
2024-02-10T19:20:07.925Z,98557.47
2024-02-10T19:22:36.863Z,98560.09
2024-02-10T19:25:07.960Z,98561.38
2024-02-10T19:27:39.982Z,98560.78
2024-02-10T19:30:11.307Z,98567.94
2024-02-10T19:32:46.278Z,98573.41
2024-02-10T19:35:15.159Z,98574.03
2024-02-10T19:37:47.773Z,98573.97
2024-02-10T19:40:19.599Z,98592.53
2024-02-10T19:42:48.040Z,98592.78
2024-02-10T19:45:16.715Z,98585.38
2024-02-10T19:47:47.787Z,98597.59
2024-02-10T19:50:19.447Z,98601.00
2024-02-10T19:52:47.822Z,98596.25
2024-02-10T19:55:16.137Z,98589.00
2024-02-10T19:57:43.615Z,98597.94
2024-02-10T20:00:12.186Z,98594.94
2024-02-10T20:02:44.060Z,98594.03
2024-02-10T20:05:13.411Z,98588.75
2024-02-10T20:07:43.147Z,98589.41
2024-02-10T20:10:11.092Z,98601.03
2024-02-10T20:12:43.833Z,98610.03
2024-02-10T20:15:12.063Z,98616.63
2024-02-10T20:17:42.423Z,98623.19
2024-02-10T20:20:15.790Z,98616.88
2024-02-10T20:22:43.061Z,98625.97
2024-02-10T20:25:11.036Z,98619.59
2024-02-10T20:27:38.019Z,98619.13
2024-02-10T20:30:08.500Z,98613.13
2024-02-10T20:32:35.575Z,98620.75
2024-02-10T20:35:03.871Z,98617.50
2024-02-10T20:37:31.479Z,98623.63
2024-02-10T20:39:58.705Z,98623.81
2024-02-10T20:42:27.692Z,98617.94
2024-02-10T20:44:54.729Z,98613.84
2024-02-10T20:47:21.778Z,98607.97
2024-02-10T20:49:49.075Z,98612.31
2024-02-10T20:52:16.154Z,98624.66
2024-02-10T20:54:44.863Z,98621.94
2024-02-10T20:57:12.730Z,98618.50
2024-02-10T20:59:40.027Z,98614.31
2024-02-10T21:02:08.340Z,98618.19
2024-02-10T21:04:36.497Z,98611.06
2024-02-10T21:07:03.572Z,98613.44
2024-02-10T21:09:30.748Z,98616.03
2024-02-10T21:12:00.044Z,98607.59
2024-02-10T21:14:28.490Z,98615.09
2024-02-10T21:16:58.835Z,98604.34
2024-02-10T21:19:26.071Z,98611.22
2024-02-10T21:21:53.421Z,98608.44
2024-02-10T21:24:22.686Z,98613.31
2024-02-10T21:26:50.597Z,98618.50
2024-02-10T21:29:17.934Z,98619.94
2024-02-10T21:31:45.028Z,98612.66
2024-02-10T21:34:12.627Z,98604.28
2024-02-10T21:36:39.848Z,98602.56
2024-02-10T21:39:10.965Z,98605.25
2024-02-10T21:41:38.443Z,98607.66
2024-02-10T21:44:06.037Z,98607.28
2024-02-10T21:46:33.209Z,98611.00
2024-02-10T21:49:01.825Z,98607.31
2024-02-10T21:51:34.316Z,98610.03
2024-02-10T21:54:01.800Z,98610.25
2024-02-10T21:56:29.091Z,98615.47
2024-02-10T21:59:01.378Z,98611.25
2024-02-10T22:01:30.497Z,98609.53
2024-02-10T22:03:59.887Z,98613.66
2024-02-10T22:06:30.136Z,98611.69
2024-02-10T22:09:05.516Z,98604.88
2024-02-10T22:11:32.606Z,98603.19
2024-02-10T22:13:59.795Z,98596.69
2024-02-10T22:16:26.841Z,98590.78
2024-02-10T22:18:55.148Z,98595.34
2024-02-10T22:21:23.602Z,98594.25
2024-02-10T22:23:51.518Z,98595.41
2024-02-10T22:26:22.651Z,98594.31
2024-02-10T22:28:49.757Z,98600.38
2024-02-10T22:31:17.434Z,98608.06
2024-02-10T22:33:44.664Z,98609.69
2024-02-10T22:36:12.727Z,98607.06
2024-02-10T22:38:41.542Z,98600.84
2024-02-10T22:41:12.522Z,98612.31
2024-02-10T22:43:39.951Z,98600.75
2024-02-10T22:46:10.058Z,98606.44
2024-02-10T22:48:37.326Z,98603.72
2024-02-10T22:51:04.816Z,98596.66
2024-02-10T22:53:34.302Z,98602.22
2024-02-10T22:56:01.637Z,98593.97
2024-02-10T22:58:29.858Z,98588.41
2024-02-10T23:00:57.279Z,98581.78
2024-02-10T23:03:25.254Z,98582.47
2024-02-10T23:05:52.508Z,98572.56
2024-02-10T23:08:21.438Z,98580.19
2024-02-10T23:10:48.889Z,98584.41
2024-02-10T23:13:21.944Z,98583.56
2024-02-10T23:15:49.886Z,98584.19
2024-02-10T23:18:19.800Z,98580.22
2024-02-10T23:20:48.657Z,98576.72
2024-02-10T23:23:19.249Z,98566.69
2024-02-10T23:25:49.418Z,98561.50
2024-02-10T23:28:17.775Z,98561.44
2024-02-10T23:30:52.727Z,98568.97
2024-02-10T23:33:34.101Z,98563.63
2024-02-10T23:36:25.522Z,98566.41
2024-02-10T23:38:55.009Z,98570.28
2024-02-10T23:41:21.890Z,98572.97
2024-02-10T23:43:49.036Z,98568.56
2024-02-10T23:46:16.749Z,98555.66
2024-02-10T23:48:46.861Z,98557.81
2024-02-10T23:51:17.517Z,98552.69
2024-02-10T23:53:45.858Z,98555.09
2024-02-10T23:56:16.826Z,98555.53
2024-02-10T23:58:45.088Z,98544.38
